createdAt,value
2019-04-01T00:00:27.188Z,6.60
2019-04-01T00:02:57.503Z,6.60
2019-04-01T00:05:25.891Z,6.40
2019-04-01T00:07:54.497Z,6.40
2019-04-01T00:10:23.244Z,6.40
2019-04-01T00:12:51.623Z,6.40
2019-04-01T00:15:20.335Z,6.40
2019-04-01T00:17:48.651Z,6.30
2019-04-01T00:20:17.324Z,6.20
2019-04-01T00:22:45.748Z,6.20
2019-04-01T00:25:14.014Z,6.20
2019-04-01T00:27:42.499Z,6.10
2019-04-01T00:30:10.898Z,6.10
2019-04-01T00:32:39.231Z,6.10
2019-04-01T00:35:08.051Z,6.10
2019-04-01T00:37:36.484Z,6.10
2019-04-01T00:40:05.028Z,6.10
2019-04-01T00:42:41.703Z,6.10
2019-04-01T00:45:13.466Z,6.10
2019-04-01T00:47:41.756Z,6.00
2019-04-01T00:50:10.353Z,5.90
2019-04-01T00:52:38.909Z,5.90
2019-04-01T00:55:07.614Z,5.80
2019-04-01T00:57:35.973Z,5.80
2019-04-01T01:00:05.753Z,5.80
2019-04-01T01:02:34.266Z,5.90
2019-04-01T01:05:04.929Z,5.80
2019-04-01T01:07:33.447Z,5.80
2019-04-01T01:10:02.336Z,5.70
2019-04-01T01:12:31.507Z,5.60
2019-04-01T01:15:00.355Z,5.60
2019-04-01T01:17:30.029Z,5.50
2019-04-01T01:19:58.790Z,5.50
2019-04-01T01:22:27.257Z,5.50
2019-04-01T01:24:56.184Z,5.40
2019-04-01T01:27:24.539Z,5.50
2019-04-01T01:29:53.504Z,5.40
2019-04-01T01:32:21.808Z,5.30
2019-04-01T01:34:50.217Z,5.30
2019-04-01T01:37:18.647Z,5.30
2019-04-01T01:39:47.334Z,5.30
2019-04-01T01:42:15.760Z,5.30
2019-04-01T01:44:44.408Z,5.30
2019-04-01T01:47:12.788Z,5.20
2019-04-01T01:49:41.183Z,5.10
2019-04-01T01:52:09.580Z,5.10
2019-04-01T01:54:38.171Z,5.10
2019-04-01T01:57:07.208Z,5.00
2019-04-01T01:59:35.474Z,5.00
2019-04-01T02:02:05.013Z,5.00
2019-04-01T02:04:33.578Z,5.00
2019-04-01T02:07:04.428Z,5.00
2019-04-01T02:09:32.781Z,5.00
2019-04-01T02:12:01.975Z,4.90
2019-04-01T02:14:30.468Z,4.80
2019-04-01T02:16:59.212Z,4.70
2019-04-01T02:19:27.835Z,4.70
2019-04-01T02:21:56.372Z,4.70
2019-04-01T02:24:25.305Z,4.70
2019-04-01T02:26:53.981Z,4.70
2019-04-01T02:29:22.581Z,4.60
2019-04-01T02:31:51.266Z,4.60
2019-04-01T02:34:19.941Z,4.60
2019-04-01T02:36:49.034Z,4.60
2019-04-01T02:39:17.338Z,4.60
2019-04-01T02:41:45.582Z,4.60
2019-04-01T02:44:14.098Z,4.60
2019-04-01T02:46:42.802Z,4.60
2019-04-01T02:49:11.142Z,4.60
2019-04-01T02:51:39.527Z,4.60
2019-04-01T02:54:08.234Z,4.50
2019-04-01T02:56:36.925Z,4.50
2019-04-01T02:59:05.173Z,4.40
2019-04-01T03:01:33.773Z,4.40
2019-04-01T03:04:02.374Z,4.40
2019-04-01T03:06:31.095Z,4.30
2019-04-01T03:09:01.373Z,4.30
2019-04-01T03:11:30.079Z,4.30
2019-04-01T03:13:58.628Z,4.20
2019-04-01T03:16:26.918Z,4.30
2019-04-01T03:18:55.721Z,4.20
2019-04-01T03:21:27.506Z,4.20
2019-04-01T03:23:55.877Z,4.10
2019-04-01T03:26:24.811Z,4.10
2019-04-01T03:28:53.237Z,4.10
2019-04-01T03:31:21.669Z,4.00
2019-04-01T03:33:50.325Z,3.90
2019-04-01T03:36:18.726Z,4.00
2019-04-01T03:38:47.077Z,3.90
2019-04-01T03:41:15.417Z,3.90
2019-04-01T03:43:43.825Z,3.90
2019-04-01T03:46:12.096Z,3.80
2019-04-01T03:48:40.936Z,3.70
2019-04-01T03:51:09.197Z,3.70
2019-04-01T03:53:38.041Z,3.70
2019-04-01T03:56:06.634Z,3.80
2019-04-01T03:58:35.306Z,3.70
2019-04-01T04:01:04.578Z,3.60
2019-04-01T04:03:33.049Z,3.60
2019-04-01T04:06:01.965Z,3.60
2019-04-01T04:08:39.304Z,3.50
2019-04-01T04:11:09.723Z,3.60
2019-04-01T04:13:38.484Z,3.50
2019-04-01T04:16:07.249Z,3.50
2019-04-01T04:18:36.377Z,3.50
2019-04-01T04:21:04.850Z,3.50
2019-04-01T04:23:33.562Z,3.50
2019-04-01T04:26:03.357Z,3.50
2019-04-01T04:28:32.346Z,3.50
2019-04-01T04:31:00.795Z,3.40
2019-04-01T04:33:29.958Z,3.40
2019-04-01T04:35:58.541Z,3.40
2019-04-01T04:38:27.757Z,3.40
2019-04-01T04:40:57.257Z,3.40
2019-04-01T04:43:25.846Z,3.40
2019-04-01T04:45:54.203Z,3.40
2019-04-01T04:48:23.657Z,3.40
2019-04-01T04:50:52.529Z,3.40
2019-04-01T04:53:21.472Z,3.40
2019-04-01T04:55:50.651Z,3.50
2019-04-01T04:58:19.577Z,3.40
2019-04-01T05:00:48.194Z,3.40
2019-04-01T05:03:16.761Z,3.40
2019-04-01T05:05:45.697Z,3.50
2019-04-01T05:08:14.387Z,3.40
2019-04-01T05:10:43.397Z,3.40
2019-04-01T05:13:13.779Z,3.40
2019-04-01T05:15:42.798Z,3.50
2019-04-01T05:18:11.494Z,3.40
2019-04-01T05:20:41.089Z,3.40
2019-04-01T05:23:11.389Z,3.50
2019-04-01T05:25:41.031Z,3.50
2019-04-01T05:28:13.167Z,3.50
2019-04-01T05:30:43.384Z,3.60
2019-04-01T05:33:15.742Z,3.60
2019-04-01T05:35:44.284Z,3.60
2019-04-01T05:38:13.162Z,3.70
2019-04-01T05:40:41.915Z,3.70
2019-04-01T05:43:11.189Z,3.70
2019-04-01T05:45:39.550Z,3.80
2019-04-01T05:48:08.750Z,3.70
2019-04-01T05:50:37.147Z,3.80
2019-04-01T05:53:05.935Z,3.80
2019-04-01T05:55:34.945Z,3.90
2019-04-01T05:58:03.694Z,4.00
2019-04-01T06:00:45.544Z,3.90
2019-04-01T06:03:14.073Z,4.00
2019-04-01T06:05:42.803Z,4.10
2019-04-01T06:08:11.780Z,4.20
2019-04-01T06:10:40.910Z,4.10
2019-04-01T06:13:09.455Z,4.20
2019-04-01T06:15:40.019Z,4.30
2019-04-01T06:18:08.520Z,4.40
2019-04-01T06:20:37.489Z,4.40
2019-04-01T06:23:06.247Z,4.50
2019-04-01T06:25:35.412Z,4.50
2019-04-01T06:28:04.761Z,4.50
2019-04-01T06:30:33.704Z,4.50
2019-04-01T06:33:02.127Z,4.60
2019-04-01T06:35:31.155Z,4.70
2019-04-01T06:37:59.928Z,4.70
2019-04-01T06:40:30.407Z,4.70
2019-04-01T06:43:00.074Z,4.80
2019-04-01T06:45:29.375Z,4.90
2019-04-01T06:47:58.259Z,4.90
2019-04-01T06:50:26.996Z,5.00
2019-04-01T06:52:55.593Z,5.10
2019-04-01T06:55:24.605Z,5.20
2019-04-01T06:57:53.178Z,5.30
2019-04-01T07:00:22.214Z,5.30
2019-04-01T07:02:51.374Z,5.40
2019-04-01T07:05:20.166Z,5.60
2019-04-01T07:07:48.883Z,5.70
2019-04-01T07:10:17.427Z,5.80
2019-04-01T07:12:46.419Z,6.00
2019-04-01T07:15:14.765Z,6.20
2019-04-01T07:17:45.295Z,6.30
2019-04-01T07:20:14.309Z,6.80
2019-04-01T07:22:43.060Z,8.10
2019-04-01T07:25:11.696Z,9.80
2019-04-01T07:27:40.555Z,11.30
2019-04-01T07:30:09.696Z,12.50
2019-04-01T07:32:38.632Z,13.90
2019-04-01T07:35:07.324Z,14.70
2019-04-01T07:37:36.352Z,15.00
2019-04-01T07:40:05.718Z,15.80
2019-04-01T07:42:34.743Z,16.60
2019-04-01T07:45:04.163Z,17.00
2019-04-01T07:47:32.981Z,17.50
2019-04-01T07:50:02.262Z,17.90
2019-04-01T07:52:31.435Z,18.10
2019-04-01T07:55:00.538Z,18.10
2019-04-01T07:57:32.626Z,18.50
2019-04-01T08:00:00.516Z,19.30
2019-04-01T08:02:30.329Z,19.70
2019-04-01T08:04:59.570Z,20.00
2019-04-01T08:07:28.698Z,19.90
2019-04-01T08:09:57.374Z,19.90
2019-04-01T08:12:27.951Z,20.60
2019-04-01T08:14:56.854Z,20.90
2019-04-01T08:17:25.316Z,21.10
2019-04-01T08:19:55.999Z,21.10
2019-04-01T08:22:24.944Z,21.10
2019-04-01T08:24:53.903Z,21.40
2019-04-01T08:27:22.735Z,21.70
2019-04-01T08:29:51.204Z,22.00
2019-04-01T08:32:19.722Z,21.40
2019-04-01T08:34:49.330Z,21.60
2019-04-01T08:37:18.127Z,21.90
2019-04-01T08:39:47.105Z,22.00
2019-04-01T08:42:16.124Z,22.20
2019-04-01T08:44:44.608Z,22.50
2019-04-01T08:47:13.063Z,23.00
2019-04-01T08:49:41.765Z,23.20
2019-04-01T08:52:10.144Z,23.00
2019-04-01T08:54:38.674Z,23.00
2019-04-01T08:57:07.088Z,23.60
2019-04-01T08:59:36.196Z,24.00
2019-04-01T09:02:16.988Z,23.90
2019-04-01T09:04:36.021Z,24.40
2019-04-01T09:07:04.789Z,24.70
2019-04-01T09:09:34.424Z,24.80
2019-04-01T09:12:04.536Z,25.20
2019-04-01T09:14:34.704Z,23.10
2019-04-01T09:17:04.996Z,22.10
2019-04-01T09:19:33.297Z,22.30
2019-04-01T09:22:04.610Z,22.60
2019-04-01T09:24:33.231Z,23.00
2019-04-01T09:27:01.991Z,23.30
2019-04-01T09:29:30.633Z,23.70
2019-04-01T09:31:59.748Z,25.40
2019-04-01T09:34:28.560Z,24.70
2019-04-01T09:36:57.384Z,22.70
2019-04-01T09:39:25.938Z,22.20
2019-04-01T09:41:54.382Z,22.30
2019-04-01T09:44:36.089Z,22.90
2019-04-01T09:46:53.203Z,22.80
2019-04-01T09:49:22.218Z,23.60
2019-04-01T09:51:51.314Z,24.70
2019-04-01T09:54:20.057Z,24.20
2019-04-01T09:56:48.461Z,22.90
2019-04-01T09:59:17.091Z,23.00
2019-04-01T10:01:45.712Z,24.00
2019-04-01T10:04:14.333Z,24.80
2019-04-01T10:06:42.759Z,25.00
2019-04-01T10:09:11.747Z,24.30
2019-04-01T10:11:40.087Z,24.30
2019-04-01T10:14:08.606Z,23.90
2019-04-01T10:16:37.646Z,24.70
2019-04-01T10:19:06.197Z,25.50
2019-04-01T10:21:35.621Z,26.30
2019-04-01T10:24:06.436Z,26.90
2019-04-01T10:26:35.017Z,26.50
2019-04-01T10:29:04.220Z,26.90
2019-04-01T10:31:32.704Z,27.30
2019-04-01T10:34:02.610Z,26.90
2019-04-01T10:36:31.310Z,27.00
2019-04-01T10:38:59.686Z,27.40
2019-04-01T10:41:28.321Z,27.90
2019-04-01T10:43:56.914Z,28.00
2019-04-01T10:46:25.483Z,28.10
2019-04-01T10:48:54.145Z,27.60
2019-04-01T10:51:22.651Z,28.10
2019-04-01T10:53:51.139Z,28.20
2019-04-01T10:56:20.656Z,28.10
2019-04-01T10:58:49.407Z,28.20
2019-04-01T11:01:18.275Z,28.10
2019-04-01T11:03:46.528Z,28.10
2019-04-01T11:06:15.643Z,28.40
2019-04-01T11:08:44.498Z,28.60
2019-04-01T11:11:13.239Z,29.00
2019-04-01T11:13:41.848Z,28.80
2019-04-01T11:16:10.304Z,28.50
2019-04-01T11:18:38.998Z,28.50
2019-04-01T11:21:07.628Z,28.30
2019-04-01T11:23:36.117Z,28.10
2019-04-01T11:26:07.160Z,28.40
2019-04-01T11:28:35.555Z,28.50
2019-04-01T11:31:05.314Z,28.10
2019-04-01T11:33:33.834Z,27.70
2019-04-01T11:36:02.695Z,27.70
2019-04-01T11:38:31.937Z,27.20
2019-04-01T11:41:00.654Z,27.10
2019-04-01T11:43:29.709Z,27.10
2019-04-01T11:45:58.658Z,26.90
2019-04-01T11:48:27.270Z,26.30
2019-04-01T11:50:55.650Z,25.20
2019-04-01T11:53:24.637Z,24.00
2019-04-01T11:55:53.289Z,23.90
2019-04-01T11:58:21.763Z,24.30
2019-04-01T12:00:54.310Z,24.30
2019-04-01T12:03:23.390Z,24.70
2019-04-01T12:05:52.407Z,25.10
2019-04-01T12:08:21.368Z,25.20
2019-04-01T12:10:50.053Z,26.00
2019-04-01T12:13:18.740Z,26.60
2019-04-01T12:15:47.074Z,26.60
2019-04-01T12:18:15.682Z,26.70
2019-04-01T12:20:44.039Z,26.10
2019-04-01T12:23:12.726Z,25.40
2019-04-01T12:25:41.503Z,24.10
2019-04-01T12:28:12.600Z,23.60
2019-04-01T12:30:41.847Z,23.70
2019-04-01T12:33:10.635Z,23.80
2019-04-01T12:35:38.926Z,23.80
2019-04-01T12:38:07.714Z,24.10
2019-04-01T12:40:36.943Z,23.90
2019-04-01T12:43:06.815Z,23.80
2019-04-01T12:45:35.744Z,23.90
2019-04-01T12:48:06.018Z,23.70
2019-04-01T12:50:34.390Z,23.40
2019-04-01T12:53:03.537Z,23.30
2019-04-01T12:55:31.895Z,23.00
2019-04-01T12:58:00.574Z,23.50
2019-04-01T13:00:29.633Z,23.80
2019-04-01T13:02:58.580Z,23.20
2019-04-01T13:05:26.940Z,22.40
2019-04-01T13:07:55.260Z,22.40
2019-04-01T13:10:23.788Z,22.30
2019-04-01T13:12:54.101Z,22.30
2019-04-01T13:15:22.455Z,22.10
2019-04-01T13:17:50.999Z,21.80
2019-04-01T13:20:19.717Z,21.60
2019-04-01T13:22:48.376Z,21.40
2019-04-01T13:25:17.085Z,21.70
2019-04-01T13:27:46.659Z,21.70
2019-04-01T13:30:17.350Z,21.50
2019-04-01T13:32:45.923Z,21.50
2019-04-01T13:35:15.129Z,21.30
2019-04-01T13:37:43.547Z,21.10
2019-04-01T13:40:12.900Z,21.20
2019-04-01T13:42:43.323Z,21.20
2019-04-01T13:45:11.739Z,21.10
2019-04-01T13:47:41.374Z,21.00
2019-04-01T13:50:10.458Z,21.00
2019-04-01T13:52:39.031Z,20.60
2019-04-01T13:55:09.903Z,20.50
2019-04-01T13:57:38.311Z,20.50
2019-04-01T14:00:07.641Z,20.80
2019-04-01T14:02:35.939Z,21.20
2019-04-01T14:05:06.443Z,21.00
2019-04-01T14:07:34.627Z,21.00
2019-04-01T14:10:04.228Z,21.00
2019-04-01T14:12:34.995Z,20.90
2019-04-01T14:15:04.337Z,20.70
2019-04-01T14:17:32.644Z,20.80
2019-04-01T14:20:02.782Z,20.70
2019-04-01T14:22:31.573Z,20.70
2019-04-01T14:25:00.261Z,20.40
2019-04-01T14:27:30.177Z,19.80
2019-04-01T14:29:58.543Z,19.60
2019-04-01T14:32:28.717Z,20.00
2019-04-01T14:34:57.289Z,20.30
2019-04-01T14:37:29.869Z,20.30
2019-04-01T14:39:56.431Z,19.90
2019-04-01T14:42:25.131Z,20.10
2019-04-01T14:44:58.328Z,20.10
2019-04-01T14:47:26.985Z,19.70
2019-04-01T14:49:55.448Z,19.80
2019-04-01T14:52:32.402Z,20.30
2019-04-01T14:54:55.171Z,20.30
2019-04-01T14:57:23.899Z,20.10
2019-04-01T14:59:56.114Z,20.20
2019-04-01T15:02:22.888Z,20.10
2019-04-01T15:04:51.912Z,20.10
2019-04-01T15:07:20.531Z,20.10
2019-04-01T15:09:49.580Z,20.20
2019-04-01T15:12:18.337Z,20.30
2019-04-01T15:14:46.980Z,20.00
2019-04-01T15:17:15.547Z,20.10
2019-04-01T15:19:43.984Z,20.20
2019-04-01T15:22:12.628Z,20.40
2019-04-01T15:24:41.094Z,20.40
2019-04-01T15:27:10.090Z,19.90
2019-04-01T15:29:38.408Z,19.60
2019-04-01T15:32:06.847Z,19.70
2019-04-01T15:34:37.391Z,19.60
2019-04-01T15:37:06.318Z,19.90
2019-04-01T15:39:34.903Z,19.90
2019-04-01T15:42:04.628Z,19.90
2019-04-01T15:44:33.568Z,20.10
2019-04-01T15:47:04.520Z,20.40
2019-04-01T15:49:32.851Z,20.10
2019-04-01T15:52:01.502Z,19.90
2019-04-01T15:54:30.206Z,20.20
2019-04-01T15:56:58.625Z,20.10
2019-04-01T15:59:27.054Z,19.80
2019-04-01T16:01:55.898Z,19.70
2019-04-01T16:04:24.311Z,19.70
2019-04-01T16:06:52.703Z,19.90
2019-04-01T16:09:22.344Z,19.70
2019-04-01T16:11:54.142Z,19.50
2019-04-01T16:14:22.167Z,19.30
2019-04-01T16:16:50.915Z,19.10
2019-04-01T16:19:19.543Z,19.10
2019-04-01T16:21:47.940Z,18.90
2019-04-01T16:24:16.647Z,18.80
2019-04-01T16:26:44.967Z,18.60
2019-04-01T16:29:13.598Z,18.60
2019-04-01T16:31:42.063Z,18.40
2019-04-01T16:34:10.999Z,18.40
2019-04-01T16:36:41.389Z,17.80
2019-04-01T16:39:10.060Z,17.60
2019-04-01T16:41:38.395Z,17.70
2019-04-01T16:44:07.121Z,17.70
2019-04-01T16:46:35.756Z,17.60
2019-04-01T16:49:05.030Z,17.80
2019-04-01T16:51:34.505Z,17.50
2019-04-01T16:54:04.816Z,17.30
2019-04-01T16:56:33.123Z,17.20
2019-04-01T16:59:01.579Z,17.40
2019-04-01T17:01:30.271Z,17.40
2019-04-01T17:03:58.979Z,17.30
2019-04-01T17:06:27.659Z,16.90
2019-04-01T17:08:56.438Z,16.50
2019-04-01T17:11:24.750Z,16.40
2019-04-01T17:13:53.068Z,16.40
2019-04-01T17:16:21.824Z,16.40
2019-04-01T17:18:50.418Z,16.60
2019-04-01T17:21:19.283Z,16.50
2019-04-01T17:23:47.854Z,16.50
2019-04-01T17:26:16.247Z,16.30
2019-04-01T17:28:45.235Z,16.10
2019-04-01T17:31:13.944Z,15.90
2019-04-01T17:33:42.546Z,15.90
2019-04-01T17:36:11.233Z,16.00
2019-04-01T17:38:41.815Z,15.90
2019-04-01T17:41:10.739Z,15.80
2019-04-01T17:43:39.521Z,15.60
2019-04-01T17:46:09.032Z,15.40
2019-04-01T17:48:37.784Z,15.20
2019-04-01T17:51:06.419Z,15.20
2019-04-01T17:53:34.725Z,15.10
2019-04-01T17:56:04.950Z,15.10
2019-04-01T17:58:33.897Z,15.00
2019-04-01T18:01:02.506Z,14.80
2019-04-01T18:03:31.178Z,14.70
2019-04-01T18:05:59.938Z,14.60
2019-04-01T18:08:29.635Z,14.60
2019-04-01T18:10:58.136Z,14.50
2019-04-01T18:13:26.600Z,14.40
2019-04-01T18:15:57.393Z,14.40
2019-04-01T18:18:27.516Z,14.50
2019-04-01T18:20:56.157Z,14.50
2019-04-01T18:23:26.288Z,14.20
2019-04-01T18:25:55.174Z,14.10
2019-04-01T18:28:23.851Z,14.00
2019-04-01T18:30:52.437Z,14.00
2019-04-01T18:33:20.921Z,14.00
2019-04-01T18:35:49.280Z,13.90
2019-04-01T18:38:17.628Z,13.80
2019-04-01T18:40:48.182Z,13.70
2019-04-01T18:43:16.594Z,13.50
2019-04-01T18:45:45.258Z,13.30
2019-04-01T18:48:14.833Z,13.30
2019-04-01T18:50:43.849Z,13.20
2019-04-01T18:53:12.469Z,13.10
2019-04-01T18:55:40.890Z,13.00
2019-04-01T18:58:10.327Z,13.00
2019-04-01T19:00:38.934Z,12.90
2019-04-01T19:03:07.914Z,12.90
2019-04-01T19:05:36.560Z,12.80
2019-04-01T19:08:04.929Z,12.60
2019-04-01T19:10:33.417Z,12.60
2019-04-01T19:13:06.547Z,12.40
2019-04-01T19:15:33.376Z,12.30
2019-04-01T19:18:02.775Z,12.30
2019-04-01T19:20:31.768Z,12.30
2019-04-01T19:23:02.192Z,12.30
2019-04-01T19:25:30.887Z,12.10
2019-04-01T19:27:59.430Z,12.10
2019-04-01T19:30:27.899Z,11.90
2019-04-01T19:32:56.512Z,11.90
2019-04-01T19:35:24.814Z,11.80
2019-04-01T19:37:53.232Z,11.80
2019-04-01T19:40:23.552Z,11.70
2019-04-01T19:42:54.018Z,11.60
2019-04-01T19:45:22.540Z,11.50
2019-04-01T19:47:51.053Z,11.40
2019-04-01T19:50:20.155Z,11.30
2019-04-01T19:52:49.057Z,11.10
2019-04-01T19:55:18.317Z,11.00
2019-04-01T19:57:47.060Z,10.90
2019-04-01T20:00:27.632Z,10.80
2019-04-01T20:02:47.565Z,10.80
2019-04-01T20:05:15.996Z,10.70
2019-04-01T20:07:44.908Z,10.80
2019-04-01T20:10:14.032Z,10.70
2019-04-01T20:12:42.800Z,10.70
2019-04-01T20:15:12.535Z,10.50
2019-04-01T20:17:41.294Z,10.30
2019-04-01T20:20:10.411Z,10.30
2019-04-01T20:22:40.358Z,10.30
2019-04-01T20:25:09.584Z,10.30
2019-04-01T20:27:38.202Z,10.20
2019-04-01T20:30:09.086Z,10.20
2019-04-01T20:32:37.855Z,10.20
2019-04-01T20:35:08.371Z,10.10
2019-04-01T20:37:37.166Z,10.10
2019-04-01T20:40:06.947Z,10.10
2019-04-01T20:42:35.446Z,10.10
2019-04-01T20:45:07.167Z,10.10
2019-04-01T20:47:35.975Z,10.10
2019-04-01T20:50:06.478Z,10.00
2019-04-01T20:52:35.046Z,9.90
2019-04-01T20:55:04.064Z,10.00
2019-04-01T20:57:32.706Z,9.80
2019-04-01T21:00:03.140Z,9.70
2019-04-01T21:02:32.179Z,9.70
2019-04-01T21:05:02.654Z,9.60
2019-04-01T21:07:31.472Z,9.50
2019-04-01T21:09:59.980Z,9.40
2019-04-01T21:12:29.140Z,9.30
2019-04-01T21:14:57.989Z,9.20
2019-04-01T21:17:26.835Z,9.10
2019-04-01T21:19:55.556Z,9.20
2019-04-01T21:22:26.341Z,9.10
2019-04-01T21:24:55.174Z,9.10
2019-04-01T21:27:24.161Z,9.10
2019-04-01T21:29:53.196Z,9.10
2019-04-01T21:32:21.722Z,9.00
2019-04-01T21:34:50.729Z,8.90
2019-04-01T21:37:19.678Z,8.90
2019-04-01T21:39:48.285Z,8.80
2019-04-01T21:42:17.065Z,8.80
2019-04-01T21:44:46.960Z,8.70
2019-04-01T21:47:17.519Z,8.70
2019-04-01T21:49:46.373Z,8.60
2019-04-01T21:52:14.852Z,8.60
2019-04-01T21:54:43.886Z,8.50
2019-04-01T21:57:12.858Z,8.40
2019-04-01T21:59:41.248Z,8.40
2019-04-01T22:02:10.028Z,8.40
2019-04-01T22:04:38.663Z,8.40
2019-04-01T22:07:07.373Z,8.30
2019-04-01T22:09:36.386Z,8.20
2019-04-01T22:12:06.224Z,8.20
2019-04-01T22:14:34.690Z,8.20
2019-04-01T22:17:03.340Z,8.20
2019-04-01T22:19:32.294Z,8.00
2019-04-01T22:22:00.972Z,7.90
2019-04-01T22:24:29.670Z,7.90
2019-04-01T22:26:58.346Z,7.90
2019-04-01T22:29:27.066Z,7.90
2019-04-01T22:31:55.995Z,7.80
2019-04-01T22:34:24.725Z,7.80
2019-04-01T22:36:53.387Z,7.70
2019-04-01T22:39:27.276Z,7.60
2019-04-01T22:41:52.909Z,7.70
2019-04-01T22:44:23.113Z,7.60
2019-04-01T22:46:52.153Z,7.50
2019-04-01T22:49:23.001Z,7.50
2019-04-01T22:51:51.662Z,7.40
2019-04-01T22:54:20.098Z,7.40
2019-04-01T22:56:48.710Z,7.30
2019-04-01T22:59:17.400Z,7.10
2019-04-01T23:01:46.107Z,7.10
2019-04-01T23:04:14.489Z,7.10
2019-04-01T23:06:43.329Z,7.10
2019-04-01T23:09:12.273Z,7.00
2019-04-01T23:11:40.899Z,7.00
2019-04-01T23:14:09.237Z,7.00
2019-04-01T23:16:38.498Z,6.90
2019-04-01T23:19:06.901Z,6.90
2019-04-01T23:21:35.596Z,6.90
2019-04-01T23:24:04.170Z,6.80
2019-04-01T23:26:32.741Z,6.70
2019-04-01T23:29:02.419Z,6.70
2019-04-01T23:31:31.279Z,6.70
2019-04-01T23:33:59.895Z,6.70
2019-04-01T23:36:29.003Z,6.80
2019-04-01T23:38:57.952Z,6.70
2019-04-01T23:41:26.710Z,6.70
2019-04-01T23:43:55.486Z,6.60
2019-04-01T23:46:24.101Z,6.50
2019-04-01T23:48:52.662Z,6.50
2019-04-01T23:51:23.163Z,6.50
2019-04-01T23:53:51.669Z,6.40
2019-04-01T23:56:20.589Z,6.40
2019-04-01T23:58:49.030Z,6.40
